Washburn, ME (04786)

10:29 AM EST on March 05, 2015 (GMT -0500)
Micmac Environmental | Change Station
CLOSE
Current Station
Personal Weather Station
Location: Caribou, ME
Elevation: 634 ft
Nearby Weather Stations

Elev 634 ft 46.78 °N, 67.99 °W | Updated 1 second ago

Clear
Clear
10.4 °F
Feels Like -6 °F
N
14.0
Wind Variable Wind from NNW
Gusts 22.0 mph

Today
High -- | Low -- °F
--% Chance of Precip.
Yesterday
High -- | Low -- °F
Precip. -- in
6:05 AM 5:23 PM
Full, 100% visible
Pressure 29.96 in
Visibility 10.0 miles
Clouds Few 4300 ft
Windchill -6 °F
Dew Point -5 °F
Humidity 48%
Rainfall in
Snow Depth Not available.
UV 4.6 out of 12
Pollen .30 out of 12
Air Quality Not available.
Flu Activity Not available.
METAR KPQI 051515Z AUTO 33009G21KT 10SM FEW043 M12/M21 A2996 RMK AO1 WSHFT 54

More Conditions Fewer Conditions

Pressure 29.96 in
Visibility 10.0 miles
Clouds Few 4300 ft
Windchill -6 °F
Dew Point -5 °F
Humidity 48%
Rainfall in
Snow Depth Not available.
UV 4.6 out of 12
Pollen .30 out of 12
Air Quality Not available.
Flu Activity Not available.
METAR KPQI 051515Z AUTO 33009G21KT 10SM FEW043 M12/M21 A2996 RMK AO1 WSHFT 54

More Conditions Fewer Conditions

10-Day Weather Forecast

Almanac

Astronomy

Mar. 05, 2015 Rise Set
Actual Time
Civil Twilight
Nautical Twilight
Astronomical Twilight
Moon
Length of Visible Light
Length of Day
Tomorrow will be .
, % of the Moon is Illuminated

Today's Extremes

State Highs State Lows

Community

WunderPhotos

Upload Photos

1,802,809 photos uploaded!

WunderBlogs® & News

Nearby

Air Quality

  Air Quality AQ Index Pollutant
Not available.

Snow Depth

Station Depth Elevation

Earthquake Activity

City Distance Mag. Time & Date
Minimum magnitude displayed is 2.5.

Coastal Water Temperatures

Place Temperature

Nearby Weather Stations